« Back
NWS Peachtree City, Ga » Text Product » AHN Terminal Aerodrome Forecast


Printer-friendly Version
Current Version              Previous Versions:   1  2  3  4  5  6  7  8  9  

Terminal Aerodrome Forecast

972
FTUS42 KFFC 231700
TAFAHN
TAF
KAHN 231739Z 2318/2418 28008KT P6SM SKC
     FM240000 VRB03KT P6SM SKC
     FM240700 05005KT P6SM SKC
     FM241400 10008KT P6SM SKC=



USA.gov is the U.S. government's official web portal to all federal, state and local government web resources and services.